Chiba, Japan
Current Conditions -  °F | °C
As of 1:30 PM on Friday 21 Nov 2014 (Local Time) from RJAA Reporting Station
Few Clouds Few Clouds  
Wind Chill: 61°   Ceiling: Unl
Heat Index: 61°   Visibility: 6mi
Dew Point: 50°   Wind: 12mph
Humidity: 68%   Direction: 20°NNE
Pressure: 30.24"   Gusts: NA
Location:  35.61°N, 140.11°E
Report Text: RJAA 210430Z 02010KT 9999 FEW020 16/10 Q1024 NOSIG RMK 1CU020 A3026
Loading
Personal Weather Stations






























Interactive Weather Map New forecast layout! Learn more

10-Day Weather Forecast

Advertisements
Track Severe Weather on mobile